Terminal Aerodrome Forecast
Issued by NWS

Home | Current Version | Previous Version | Graphics & Text | Print | Product List | Glossary On
Versions: 1 2 3 4 5 6 7 8 9 10 11 12 13 14
000
FTUS43 KICT 220540
TAFRSL
TAF
KRSL 220540Z 2206/2306 18015KT 6SM BR VCSH BKN008
      TEMPO 2206/2209 4SM -RA BR BKN005
     FM220900 23015KT 6SM BR VCSH BKN012
     FM221300 29015KT P6SM VCSH BKN025
     FM221700 31022G32KT P6SM SCT030
     FM230000 30011KT P6SM SCT030=

USA.gov is the U.S. government's official web portal to all federal, state and local government web resources and services.